Main page
METAR-TAF:

METAR-TAF

Airports :

Dubai International Airport

Dubai, United Arab Emirates

latitude: 25-15-10N, longitude: 055-21-52E, elevation: 8 m

Current weather observation

The report was made 1 hour and 9 minutes ago, at 21:00 UTC
Wind 5 kt from the East/Southeast, varying between East and Southeast
Temperature 37°C
Humidity 45%
Pressure 994 hPa
Visibility 10 km or more
no clouds below 1500 m and no cumulonimbus

METAR: OMDB 092100Z 11005KT 080V140 CAVOK 37/23 Q0994 NOSIG

Time: 02:09 (22:09 UTC)

Forecast

The report was made 5 hours and 9 minutes ago, at 17:00 UTC
Forecast valid from 09 at 18 UTC to 11 at 00 UTC
Wind 5 kt from the Northeast
Visibility: 8000 m
Becoming
from 10 at 02 UTC to 10 at 04 UTC
Wind 10 kt from the East/Southeast
Becoming
from 10 at 08 UTC to 10 at 10 UTC
Wind 14 kt from the North
Becoming
from 10 at 16 UTC to 10 at 18 UTC
Wind 5 kt from the Northeast

TAF: OMDB 091700Z 0918/1100 05005KT 8000 NSC BECMG 1002/1004 12010KT BECMG 1008/1010 35014KT BECMG 1016/1018 05005KT

Weather observations and forecasts of more than 4000 airports (METAR and TAF reports).

The available stations are represented by yellow and red dots on the map.

Hover mouse over dot to see the name of the station.

Then click to see weather observations and forecasts.

To change the map : click on the green buttons with a black cross to zoom in, on the green button with a dash to zoom out, or on the green arrows for adjacent maps.


METAR-TAF: